Time;durP1;ratioP1;P1;durP2;ratioP2;P2;SDS_P1;SDS_P2;PMS_P1;PMS_P2;Temp;Humidity;BMP_temperature;BMP_pressure;BME280_temperature;BME280_humidity;BME280_pressure;Samples;Min_cycle;Max_cycle;Signal;HPM_P1;HPM_P2
2022/12/06 00:01:21;;;;;;;31.40;25.63;;;;;;;;;;10280592;28;20516;-63
2022/12/06 00:06:20;;;;;;;29.52;22.88;;;;;;;;;;10280338;28;20052;-63
2022/12/06 00:11:20;;;;;;;27.58;22.45;;;;;;;;;;10280331;28;20041;-64
2022/12/06 00:16:18;;;;;;;28.85;24.40;;;;;;;;;;10280154;28;20045;-64
2022/12/06 00:21:19;;;;;;;28.55;22.08;;;;;;;;;;10278652;28;20049;-63
2022/12/06 00:26:18;;;;;;;27.75;20.58;;;;;;;;;;10278189;28;20052;-64
2022/12/06 00:31:21;;;;;;;28.85;22.77;;;;;;;;;;10279447;28;20398;-63
2022/12/06 00:36:21;;;;;;;26.88;23.02;;;;;;;;;;10279457;28;20064;-64
2022/12/06 00:41:20;;;;;;;36.25;26.13;;;;;;;;;;10278677;28;20095;-65
2022/12/06 00:46:19;;;;;;;33.47;25.75;;;;;;;;;;10278830;28;20083;-64
2022/12/06 00:51:20;;;;;;;29.70;22.52;;;;;;;;;;10277393;28;20117;-63
2022/12/06 00:56:18;;;;;;;30.10;22.42;;;;;;;;;;10278258;28;20052;-63
2022/12/06 01:01:18;;;;;;;32.75;22.27;;;;;;;;;;10278268;28;20072;-64
2022/12/06 01:06:21;;;;;;;27.52;21.95;;;;;;;;;;10278063;28;20494;-63
2022/12/06 01:11:19;;;;;;;34.53;26.17;;;;;;;;;;10277756;28;20071;-64
2022/12/06 01:16:18;;;;;;;32.30;26.05;;;;;;;;;;10277689;28;20077;-63
2022/12/06 01:21:18;;;;;;;35.58;25.98;;;;;;;;;;10277489;28;20073;-63
2022/12/06 01:26:19;;;;;;;32.85;21.52;;;;;;;;;;10277076;28;20429;-63
2022/12/06 01:31:17;;;;;;;29.00;21.88;;;;;;;;;;10276204;28;20399;-63
2022/12/06 01:36:16;;;;;;;52.92;33.70;;;;;;;;;;10276750;28;20414;-64
2022/12/06 01:41:15;;;;;;;54.90;33.08;;;;;;;;;;10276676;28;20081;-64
2022/12/06 01:46:20;;;;;;;44.72;29.30;;;;;;;;;;10276481;28;20056;-62
2022/12/06 01:51:19;;;;;;;40.47;26.85;;;;;;;;;;10276224;28;20049;-62
2022/12/06 01:56:18;;;;;;;35.08;25.85;;;;;;;;;;10275690;28;20422;-63
2022/12/06 02:01:16;;;;;;;137.88;74.40;;;;;;;;;;10276267;28;20399;-63
2022/12/06 02:06:16;;;;;;;90.88;41.53;;;;;;;;;;10275576;28;20075;-63
2022/12/06 02:11:14;;;;;;;126.43;53.88;;;;;;;;;;10275613;28;20048;-63
2022/12/06 02:16:21;;;;;;;119.47;48.95;;;;;;;;;;10275728;28;20490;-64
2022/12/06 02:21:25;;;;;;;63.30;27.67;;;;;;;;;;10274927;28;20139;-64
2022/12/06 02:26:30;;;;;;;158.85;32.67;;;;;;;;;;10275623;28;20358;-63
2022/12/06 02:31:32;;;;;;;92.00;27.95;;;;;;;;;;10274941;28;20091;-63
2022/12/06 02:36:33;;;;;;;287.15;37.72;;;;;;;;;;10274713;28;20072;-64
2022/12/06 02:41:34;;;;;;;85.40;25.52;;;;;;;;;;10274543;28;20099;-64
2022/12/06 02:46:35;;;;;;;42.50;20.65;;;;;;;;;;10275063;28;20044;-64
2022/12/06 02:51:35;;;;;;;55.90;22.08;;;;;;;;;;10274587;28;20052;-62
2022/12/06 02:56:33;;;;;;;128.70;26.23;;;;;;;;;;10274791;28;20055;-64
2022/12/06 03:01:34;;;;;;;42.35;19.83;;;;;;;;;;10274392;28;20088;-64
2022/12/06 03:06:41;;;;;;;77.70;20.30;;;;;;;;;;10274670;28;20070;-64
2022/12/06 03:11:44;;;;;;;149.00;25.77;;;;;;;;;;10273022;28;20147;-63
2022/12/06 03:16:47;;;;;;;61.05;21.38;;;;;;;;;;10274316;28;20595;-63
2022/12/06 03:21:47;;;;;;;33.92;20.98;;;;;;;;;;10274098;28;20072;-64
2022/12/06 03:26:47;;;;;;;74.72;21.95;;;;;;;;;;10273775;28;20057;-63
2022/12/06 03:31:47;;;;;;;63.92;17.63;;;;;;;;;;10274398;28;20045;-63
2022/12/06 03:36:46;;;;;;;31.55;17.83;;;;;;;;;;10273834;28;20201;-63
2022/12/06 03:41:50;;;;;;;42.20;18.77;;;;;;;;;;10273415;28;20466;-64
2022/12/06 03:46:50;;;;;;;30.13;17.65;;;;;;;;;;10273453;28;20087;-63
2022/12/06 03:51:48;;;;;;;42.58;16.60;;;;;;;;;;10274333;28;20125;-62
2022/12/06 03:56:47;;;;;;;26.38;17.50;;;;;;;;;;10280422;28;20458;-62
2022/12/06 04:01:45;;;;;;;27.38;16.98;;;;;;;;;;10279496;28;20052;-64
2022/12/06 04:06:45;;;;;;;56.60;19.25;;;;;;;;;;10280326;28;20045;-64
2022/12/06 04:11:43;;;;;;;68.60;19.45;;;;;;;;;;10280277;28;20045;-64
2022/12/06 04:48:18;;;;;;;88.35;28.25;;;;;;;;;;10278639;28;20330;-63
2022/12/06 04:53:18;;;;;;;158.98;50.65;;;;;;;;;;10278396;28;20037;-63
2022/12/06 04:58:16;;;;;;;94.88;32.53;;;;;;;;;;10279031;28;20135;-64
2022/12/06 05:03:15;;;;;;;105.35;41.40;;;;;;;;;;10276746;28;20092;-64
2022/12/06 05:08:13;;;;;;;90.07;37.03;;;;;;;;;;10244619;28;20080;-64
2022/12/06 05:13:13;;;;;;;74.90;28.67;;;;;;;;;;10244842;28;20069;-63
2022/12/06 05:18:11;;;;;;;119.88;26.17;;;;;;;;;;10269080;28;20076;-64
2022/12/06 05:23:09;;;;;;;41.88;19.13;;;;;;;;;;10277716;28;20080;-64
2022/12/06 05:28:08;;;;;;;138.63;28.05;;;;;;;;;;10251158;28;20502;-63
2022/12/06 05:33:07;;;;;;;80.80;22.65;;;;;;;;;;10249455;28;20042;-62
2022/12/06 05:38:06;;;;;;;129.77;29.40;;;;;;;;;;10259817;28;20045;-65
2022/12/06 05:43:04;;;;;;;88.78;23.20;;;;;;;;;;10274129;28;20092;-63
2022/12/06 05:48:02;;;;;;;152.00;45.35;;;;;;;;;;10276165;28;20092;-63
2022/12/06 05:53:02;;;;;;;170.25;40.90;;;;;;;;;;10275581;28;20588;-64
2022/12/06 05:58:00;;;;;;;149.63;35.40;;;;;;;;;;10271520;28;20087;-64
2022/12/06 06:02:59;;;;;;;80.07;21.70;;;;;;;;;;10275232;28;20083;-63
2022/12/06 06:07:58;;;;;;;129.45;36.00;;;;;;;;;;10248927;28;20079;-63
2022/12/06 06:12:57;;;;;;;112.18;32.40;;;;;;;;;;10254459;28;20151;-64
2022/12/06 06:17:55;;;;;;;63.70;27.42;;;;;;;;;;10246458;28;20471;-64
2022/12/06 06:22:54;;;;;;;51.55;26.25;;;;;;;;;;10243332;28;20086;-64
2022/12/06 06:27:53;;;;;;;49.90;23.98;;;;;;;;;;10246417;28;20522;-64
2022/12/06 06:32:52;;;;;;;37.08;20.15;;;;;;;;;;10263492;28;20530;-65
2022/12/06 06:37:51;;;;;;;35.33;22.20;;;;;;;;;;10248923;28;20076;-65
2022/12/06 06:42:49;;;;;;;33.10;18.92;;;;;;;;;;10256935;28;20083;-64
2022/12/06 06:47:47;;;;;;;30.30;18.20;;;;;;;;;;10265327;28;20073;-64
2022/12/06 06:52:47;;;;;;;32.58;18.45;;;;;;;;;;10256219;28;20069;-64
2022/12/06 06:57:46;;;;;;;45.47;27.52;;;;;;;;;;10260848;28;20470;-64
2022/12/06 07:02:44;;;;;;;30.55;20.20;;;;;;;;;;10268195;28;20505;-65
2022/12/06 07:07:43;;;;;;;34.33;20.80;;;;;;;;;;10268324;28;20041;-64
2022/12/06 07:17:58;;;;;;;28.77;18.75;;;;;;;;;;10251179;28;20061;-63
2022/12/06 07:22:57;;;;;;;27.77;18.13;;;;;;;;;;10249877;28;20088;-63
2022/12/06 07:27:56;;;;;;;27.27;19.13;;;;;;;;;;10250334;28;20612;-64
2022/12/06 07:32:54;;;;;;;35.03;25.55;;;;;;;;;;10259998;28;20597;-64
2022/12/06 07:37:52;;;;;;;53.35;33.63;;;;;;;;;;10280566;28;20091;-64
2022/12/06 07:48:08;;;;;;;44.63;31.73;;;;;;;;;;10267831;28;20060;-64
2022/12/06 07:53:06;;;;;;;115.00;59.38;;;;;;;;;;10259971;28;20079;-64
2022/12/06 07:58:04;;;;;;;141.98;65.30;;;;;;;;;;10259682;28;20044;-64
2022/12/06 08:03:02;;;;;;;128.88;62.78;;;;;;;;;;10259697;28;20502;-65
2022/12/06 08:08:02;;;;;;;80.88;48.95;;;;;;;;;;10259104;28;20376;-64
2022/12/06 08:13:02;;;;;;;42.83;30.75;;;;;;;;;;10266896;28;20045;-64
2022/12/06 08:18:00;;;;;;;60.63;37.78;;;;;;;;;;10264142;28;20049;-64
2022/12/06 08:22:59;;;;;;;147.55;78.55;;;;;;;;;;10251552;28;20083;-64
2022/12/06 08:27:58;;;;;;;68.20;41.85;;;;;;;;;;10252264;28;20164;-64
2022/12/06 08:32:56;;;;;;;38.15;26.02;;;;;;;;;;10249360;28;20069;-64
2022/12/06 08:37:54;;;;;;;36.88;23.42;;;;;;;;;;10267154;28;20207;-64
2022/12/06 08:42:53;;;;;;;106.60;71.85;;;;;;;;;;10252988;28;20475;-63
2022/12/06 08:47:52;;;;;;;45.28;31.67;;;;;;;;;;10279058;28;20087;-65
2022/12/06 08:52:50;;;;;;;33.78;25.00;;;;;;;;;;10279603;28;20073;-62
2022/12/06 08:57:49;;;;;;;30.70;21.45;;;;;;;;;;10250330;28;20060;-63
2022/12/06 09:02:47;;;;;;;25.40;18.83;;;;;;;;;;10269163;28;20068;-61
2022/12/06 09:07:47;;;;;;;26.02;17.55;;;;;;;;;;10271116;28;20064;-63
2022/12/06 09:12:45;;;;;;;19.98;13.80;;;;;;;;;;10277917;28;20083;-63
2022/12/06 09:17:43;;;;;;;16.98;13.30;;;;;;;;;;10236567;28;20439;-64
2022/12/06 09:22:41;;;;;;;28.65;22.08;;;;;;;;;;10258261;28;20076;-64
2022/12/06 09:27:41;;;;;;;27.67;20.58;;;;;;;;;;10266339;28;20073;-63
2022/12/06 09:32:39;;;;;;;30.80;23.23;;;;;;;;;;10266769;28;20057;-64
2022/12/06 09:37:38;;;;;;;21.42;15.48;;;;;;;;;;10259750;28;20069;-63
2022/12/06 09:42:47;;;;;;;28.75;21.20;;;;;;;;;;10262984;28;20095;-65
2022/12/06 09:47:59;;;;;;;18.02;15.55;;;;;;;;;;10263099;28;20521;-64
2022/12/06 09:53:06;;;;;;;31.48;21.55;;;;;;;;;;10272937;28;20080;-64
2022/12/06 09:58:11;;;;;;;37.65;25.95;;;;;;;;;;10272261;28;20614;-64
2022/12/06 10:03:09;;;;;;;;;;;;;;;;;;10264294;28;20095;-63
2022/12/06 10:08:18;;;;;;;33.75;23.50;;;;;;;;;;10276095;28;19971;-63
2022/12/06 10:13:23;;;;;;;42.90;26.70;;;;;;;;;;10274038;28;20072;-65
2022/12/06 10:18:37;;;;;;;39.17;28.80;;;;;;;;;;10275588;28;20064;-64
2022/12/06 10:23:41;;;;;;;40.63;26.88;;;;;;;;;;10275913;28;20077;-64
2022/12/06 10:28:44;;;;;;;36.47;30.33;;;;;;;;;;10258200;28;20062;-64
2022/12/06 10:33:49;;;;;;;42.45;33.60;;;;;;;;;;10256020;28;20633;-65
2022/12/06 10:38:50;;;;;;;36.00;26.45;;;;;;;;;;10253676;28;20074;-64
2022/12/06 10:43:53;;;;;;;65.75;42.00;;;;;;;;;;10252581;28;20089;-63
2022/12/06 10:48:57;;;;;;;24.85;19.17;;;;;;;;;;10244419;28;20068;-64
2022/12/06 10:53:57;;;;;;;30.63;20.90;;;;;;;;;;10241819;28;20069;-64
2022/12/06 10:58:59;;;;;;;22.98;17.77;;;;;;;;;;10248953;28;20069;-65
2022/12/06 11:03:59;;;;;;;21.17;16.30;;;;;;;;;;10249126;28;20073;-64
2022/12/06 11:08:59;;;;;;;25.30;17.80;;;;;;;;;;10275180;28;20056;-64
2022/12/06 11:14:01;;;;;;;32.58;22.02;;;;;;;;;;10263797;28;20069;-65
2022/12/06 11:19:02;;;;;;;26.08;20.25;;;;;;;;;;10261865;28;20511;-63
2022/12/06 11:24:02;;;;;;;25.60;18.30;;;;;;;;;;10261533;28;20088;-63
2022/12/06 11:29:05;;;;;;;22.30;16.13;;;;;;;;;;10265698;28;20490;-63
2022/12/06 11:34:04;;;;;;;25.70;18.88;;;;;;;;;;10251982;28;20073;-63
2022/12/06 11:39:03;;;;;;;26.25;19.42;;;;;;;;;;10252788;28;20065;-64
2022/12/06 11:44:03;;;;;;;24.73;19.65;;;;;;;;;;10255184;28;20485;-65
2022/12/06 11:49:04;;;;;;;24.70;18.88;;;;;;;;;;10265950;28;20069;-63
2022/12/06 11:54:04;;;;;;;33.10;21.90;;;;;;;;;;10264173;28;20052;-64
2022/12/06 11:59:11;;;;;;;27.73;22.38;;;;;;;;;;10260897;28;20139;-64
2022/12/06 12:04:27;;;;;;;37.85;28.50;;;;;;;;;;10258636;28;20064;-64
2022/12/06 12:09:27;;;;;;;25.85;21.02;;;;;;;;;;10256240;28;20034;-63
2022/12/06 12:14:29;;;;;;;25.80;22.15;;;;;;;;;;10259585;28;20048;-63
2022/12/06 12:19:31;;;;;;;30.80;22.65;;;;;;;;;;10265479;28;20042;-63
2022/12/06 12:24:44;;;;;;;39.53;31.13;;;;;;;;;;10259509;28;20499;-63
2022/12/06 12:30:22;;;;;;;41.42;34.10;;;;;;;;;;10257374;28;20072;-64
2022/12/06 12:35:27;;;;;;;30.98;25.08;;;;;;;;;;10248100;28;20060;-63
2022/12/06 12:40:27;;;;;;;37.47;27.87;;;;;;;;;;10257551;28;20049;-63
2022/12/06 12:45:26;;;;;;;25.63;18.90;;;;;;;;;;10255750;28;20184;-63
2022/12/06 12:50:26;;;;;;;22.55;17.92;;;;;;;;;;10276761;28;20071;-63
2022/12/06 12:55:26;;;;;;;22.20;17.98;;;;;;;;;;10263370;28;20049;-64
2022/12/06 13:00:25;;;;;;;23.75;19.35;;;;;;;;;;10237802;28;20041;-64
2022/12/06 13:05:24;;;;;;;24.27;19.55;;;;;;;;;;10241643;28;20073;-66
2022/12/06 13:10:34;;;;;;;23.25;18.77;;;;;;;;;;10259642;28;20041;-66
2022/12/06 13:15:34;;;;;;;34.08;23.55;;;;;;;;;;10269000;28;20458;-64
2022/12/06 13:20:33;;;;;;;23.98;19.05;;;;;;;;;;10270308;28;20041;-65
2022/12/06 13:25:33;;;;;;;26.73;19.83;;;;;;;;;;10271225;28;20083;-65
2022/12/06 13:30:33;;;;;;;30.77;25.30;;;;;;;;;;10269609;28;20049;-64
2022/12/06 13:35:36;;;;;;;27.17;20.48;;;;;;;;;;10243584;28;20059;-64
2022/12/06 13:40:43;;;;;;;22.73;16.70;;;;;;;;;;10273758;28;20048;-66
2022/12/06 13:45:44;;;;;;;22.92;18.17;;;;;;;;;;10272591;28;20526;-65
2022/12/06 13:50:52;;;;;;;37.40;26.70;;;;;;;;;;10391982;27;20603;-64
2022/12/06 13:55:59;;;;;;;36.38;27.10;;;;;;;;;;10365156;28;20068;-63
2022/12/06 14:00:57;;;;;;;66.13;40.47;;;;;;;;;;10361330;28;20063;-65
2022/12/06 14:06:04;;;;;;;42.13;30.13;;;;;;;;;;10358528;28;20075;-65
2022/12/06 14:11:20;;;;;;;38.95;29.50;;;;;;;;;;10361546;28;20036;-65
2022/12/06 14:16:26;;;;;;;38.22;30.77;;;;;;;;;;10351028;28;20083;-65
2022/12/06 14:21:26;;;;;;;34.33;23.95;;;;;;;;;;10364669;27;20067;-65
2022/12/06 14:26:25;;;;;;;41.78;33.45;;;;;;;;;;10358085;28;20071;-65
2022/12/06 14:31:27;;;;;;;48.00;33.85;;;;;;;;;;10348516;28;20068;-64
2022/12/06 14:36:27;;;;;;;61.60;44.90;;;;;;;;;;10370019;27;20458;-62
2022/12/06 14:46:47;;;;;;;37.67;28.17;;;;;;;;;;10367193;28;20090;-64
2022/12/06 14:51:45;;;;;;;165.60;99.20;;;;;;;;;;10349478;28;20056;-64
2022/12/06 14:56:44;;;;;;;87.97;62.28;;;;;;;;;;10363020;28;20048;-64
2022/12/06 15:01:48;;;;;;;99.47;73.30;;;;;;;;;;10329032;28;20075;-65
2022/12/06 15:06:51;;;;;;;64.47;42.33;;;;;;;;;;10319925;28;20078;-65
2022/12/06 15:17:15;;;;;;;44.05;29.98;;;;;;;;;;10310306;28;20049;-64
2022/12/06 15:22:15;;;;;;;56.53;36.83;;;;;;;;;;10336383;28;20043;-63
2022/12/06 15:27:22;;;;;;;53.67;38.05;;;;;;;;;;10338105;28;20067;-65
2022/12/06 15:32:23;;;;;;;56.60;40.70;;;;;;;;;;10332576;28;20041;-67
2022/12/06 15:37:21;;;;;;;40.47;30.27;;;;;;;;;;10332034;28;20461;-66
2022/12/06 15:42:37;;;;;;;43.22;35.67;;;;;;;;;;10341157;28;20068;-64
2022/12/06 15:47:37;;;;;;;28.77;20.20;;;;;;;;;;10319283;28;20482;-66
2022/12/06 15:52:35;;;;;;;71.28;46.28;;;;;;;;;;10323601;28;20040;-67
2022/12/06 15:57:33;;;;;;;50.75;38.58;;;;;;;;;;10321053;28;20647;-65
2022/12/06 16:02:32;;;;;;;71.55;53.15;;;;;;;;;;10322600;28;20063;-64
2022/12/06 16:07:31;;;;;;;48.25;33.67;;;;;;;;;;10328044;28;20487;-66
2022/12/06 16:13:20;;;;;;;34.15;30.58;;;;;;;;;;10317621;28;20053;-66
2022/12/06 16:17:49;;;;;;;37.13;29.80;;;;;;;;;;10330397;28;20055;-67
2022/12/06 16:28:04;;;;;;;24.25;19.20;;;;;;;;;;10343018;28;20083;-66
2022/12/06 16:33:02;;;;;;;32.75;25.23;;;;;;;;;;10318164;28;20412;-65
2022/12/06 16:38:06;;;;;;;31.80;25.17;;;;;;;;;;10317807;28;20072;-65
2022/12/06 16:43:04;;;;;;;33.60;25.20;;;;;;;;;;10317693;28;20036;-66
2022/12/06 16:48:02;;;;;;;30.15;22.75;;;;;;;;;;10317531;28;20068;-65
2022/12/06 16:53:00;;;;;;;25.65;20.83;;;;;;;;;;10312554;28;20074;-66
2022/12/06 16:58:00;;;;;;;23.67;19.52;;;;;;;;;;10314314;28;20056;-67
2022/12/06 17:02:58;;;;;;;59.80;44.03;;;;;;;;;;10314802;28;20075;-67
2022/12/06 17:07:56;;;;;;;37.80;26.85;;;;;;;;;;10326655;28;20068;-64
2022/12/06 17:12:56;;;;;;;37.72;28.95;;;;;;;;;;10315095;28;20091;-66
2022/12/06 17:17:56;;;;;;;36.95;27.73;;;;;;;;;;10324135;28;20060;-64
2022/12/06 17:22:54;;;;;;;44.33;34.45;;;;;;;;;;10302386;28;20095;-62
2022/12/06 17:27:52;;;;;;;40.28;29.98;;;;;;;;;;10314998;28;20075;-61
2022/12/06 17:32:50;;;;;;;58.00;37.25;;;;;;;;;;10325090;28;20459;-63
2022/12/06 17:37:51;;;;;;;81.43;53.20;;;;;;;;;;10316762;28;20071;-63
2022/12/06 17:43:01;;;;;;;51.97;35.95;;;;;;;;;;10310368;28;20071;-64
2022/12/06 17:47:59;;;;;;;64.70;45.25;;;;;;;;;;10311024;28;20091;-63
2022/12/06 17:52:59;;;;;;;41.97;31.85;;;;;;;;;;10310378;28;20067;-61
2022/12/06 17:57:57;;;;;;;39.78;30.15;;;;;;;;;;10315870;28;20165;-61
2022/12/06 18:02:55;;;;;;;33.45;24.83;;;;;;;;;;10314014;28;20737;-62
2022/12/06 18:07:53;;;;;;;33.63;28.65;;;;;;;;;;10314403;28;20083;-62
2022/12/06 18:12:53;;;;;;;37.63;28.35;;;;;;;;;;10309180;28;20067;-61
2022/12/06 18:17:56;;;;;;;70.80;44.75;;;;;;;;;;10295797;28;20068;-62
2022/12/06 18:22:55;;;;;;;111.10;71.85;;;;;;;;;;10315427;28;20829;-62
2022/12/06 18:27:54;;;;;;;99.15;66.75;;;;;;;;;;10314393;28;20076;-63
2022/12/06 18:32:52;;;;;;;50.17;38.00;;;;;;;;;;10311090;28;20076;-63
2022/12/06 18:37:51;;;;;;;84.80;61.80;;;;;;;;;;10321199;28;20071;-64
2022/12/06 18:42:49;;;;;;;86.35;60.50;;;;;;;;;;10319392;28;20584;-65
2022/12/06 18:47:49;;;;;;;165.65;130.20;;;;;;;;;;10319745;28;20498;-63
2022/12/06 18:52:47;;;;;;;92.53;66.63;;;;;;;;;;10317277;28;20452;-62
2022/12/06 18:57:45;;;;;;;48.60;33.03;;;;;;;;;;10328670;28;20083;-62
2022/12/06 19:02:44;;;;;;;45.70;35.85;;;;;;;;;;10318885;28;20079;-62
2022/12/06 19:07:44;;;;;;;34.13;24.70;;;;;;;;;;10316362;28;20068;-63
2022/12/06 19:12:42;;;;;;;48.50;39.55;;;;;;;;;;10323235;28;20071;-62
2022/12/06 19:17:42;;;;;;;44.83;31.05;;;;;;;;;;10318869;28;20072;-62
2022/12/06 19:22:40;;;;;;;48.78;34.38;;;;;;;;;;10320609;28;20045;-63
2022/12/06 19:27:41;;;;;;;40.47;29.70;;;;;;;;;;10320120;28;20049;-62
2022/12/06 19:32:39;;;;;;;40.10;30.90;;;;;;;;;;10324646;28;20082;-62
2022/12/06 19:37:37;;;;;;;155.77;96.60;;;;;;;;;;10335646;28;20048;-63
2022/12/06 19:47:53;;;;;;;73.50;53.08;;;;;;;;;;10329063;28;20048;-63
2022/12/06 19:52:51;;;;;;;60.10;43.40;;;;;;;;;;10323258;28;20071;-63
2022/12/06 19:57:49;;;;;;;37.80;26.27;;;;;;;;;;10319132;28;20079;-65
2022/12/06 20:02:47;;;;;;;43.28;33.00;;;;;;;;;;10317481;28;20091;-64
2022/12/06 20:07:47;;;;;;;47.13;39.70;;;;;;;;;;10315406;28;20076;-65
2022/12/06 20:12:45;;;;;;;38.80;25.17;;;;;;;;;;10314618;28;20068;-65
2022/12/06 20:17:44;;;;;;;38.70;27.50;;;;;;;;;;10315206;28;20071;-65
2022/12/06 20:22:42;;;;;;;70.22;41.38;;;;;;;;;;10316550;28;20064;-65
2022/12/06 20:27:50;;;;;;;49.20;33.53;;;;;;;;;;10316621;28;20075;-65
2022/12/06 20:32:49;;;;;;;48.20;24.35;;;;;;;;;;10314853;28;20064;-65
2022/12/06 20:37:49;;;;;;;56.10;39.35;;;;;;;;;;10312794;28;20072;-64
2022/12/06 20:42:49;;;;;;;50.55;30.85;;;;;;;;;;10313481;28;20114;-64
2022/12/06 20:47:50;;;;;;;47.47;29.70;;;;;;;;;;10313284;28;20079;-65
2022/12/06 20:52:49;;;;;;;55.28;29.20;;;;;;;;;;10315642;28;20107;-64
2022/12/06 20:57:47;;;;;;;57.10;33.70;;;;;;;;;;10315266;28;20076;-66
2022/12/06 21:02:46;;;;;;;68.85;37.30;;;;;;;;;;10315856;28;20134;-66
2022/12/06 21:07:45;;;;;;;67.32;38.33;;;;;;;;;;10306747;28;20060;-66
2022/12/06 21:12:43;;;;;;;104.25;47.58;;;;;;;;;;10316744;28;20072;-64
2022/12/06 21:17:41;;;;;;;57.80;33.00;;;;;;;;;;10317211;28;20072;-64
2022/12/06 21:22:41;;;;;;;187.98;45.42;;;;;;;;;;10314588;28;20520;-64
2022/12/06 21:27:39;;;;;;;88.28;33.25;;;;;;;;;;10315059;28;20083;-65
2022/12/06 21:32:37;;;;;;;90.82;37.85;;;;;;;;;;10315712;28;20079;-62
2022/12/06 21:37:35;;;;;;;79.90;37.65;;;;;;;;;;10315762;28;20382;-64
2022/12/06 21:42:35;;;;;;;86.25;32.67;;;;;;;;;;10312946;28;20457;-64
2022/12/06 21:47:34;;;;;;;93.60;26.23;;;;;;;;;;10312741;28;20528;-64
2022/12/06 21:52:32;;;;;;;69.90;32.70;;;;;;;;;;10315575;28;20072;-64
2022/12/06 21:57:33;;;;;;;171.25;41.17;;;;;;;;;;10314470;28;20075;-64
2022/12/06 22:02:32;;;;;;;81.22;29.38;;;;;;;;;;10310939;28;20468;-64
2022/12/06 22:07:32;;;;;;;56.80;26.70;;;;;;;;;;10343183;28;20076;-65
2022/12/06 22:12:30;;;;;;;258.77;62.58;;;;;;;;;;10293707;28;20073;-64
2022/12/06 22:17:28;;;;;;;240.57;49.63;;;;;;;;;;10320395;28;20442;-64
2022/12/06 22:22:28;;;;;;;258.20;38.15;;;;;;;;;;10319628;28;20063;-62
2022/12/06 22:27:26;;;;;;;154.20;32.78;;;;;;;;;;10322602;28;20079;-63
2022/12/06 22:32:24;;;;;;;138.07;33.72;;;;;;;;;;10323411;28;20063;-64
2022/12/06 22:37:23;;;;;;;136.73;27.42;;;;;;;;;;10354803;28;20048;-64
2022/12/06 22:42:27;;;;;;;72.15;24.45;;;;;;;;;;10323228;28;20083;-63
2022/12/06 22:47:25;;;;;;;88.05;32.08;;;;;;;;;;10322207;28;20432;-63
2022/12/06 22:52:23;;;;;;;51.88;22.88;;;;;;;;;;10322485;28;20048;-63
2022/12/06 22:57:21;;;;;;;62.70;21.35;;;;;;;;;;10321523;28;20060;-63
2022/12/06 23:02:21;;;;;;;39.15;20.38;;;;;;;;;;10322308;28;20079;-63
2022/12/06 23:07:19;;;;;;;71.13;20.98;;;;;;;;;;10320900;28;20067;-62
2022/12/06 23:12:17;;;;;;;38.55;18.23;;;;;;;;;;10352459;28;20076;-62
2022/12/06 23:17:16;;;;;;;56.45;19.33;;;;;;;;;;10318953;28;20068;-63
2022/12/06 23:22:15;;;;;;;38.15;21.13;;;;;;;;;;10321105;28;20051;-63
2022/12/06 23:27:13;;;;;;;204.90;30.17;;;;;;;;;;10318158;28;20068;-64
2022/12/06 23:32:11;;;;;;;221.73;31.67;;;;;;;;;;10316667;28;20520;-64
2022/12/06 23:37:10;;;;;;;84.22;22.60;;;;;;;;;;10319803;28;20048;-64
2022/12/06 23:42:09;;;;;;;85.45;21.63;;;;;;;;;;10320894;28;20190;-64
2022/12/06 23:47:08;;;;;;;102.05;23.40;;;;;;;;;;10317145;28;20087;-63
2022/12/06 23:52:06;;;;;;;202.65;28.10;;;;;;;;;;10315201;28;20078;-63
2022/12/06 23:57:04;;;;;;;254.02;42.60;;;;;;;;;;10316699;28;20044;-64
